ASL234 LYBE-LRTR
Flight info
| Callsign | ASL234 |
|---|---|
| Flight time | N/A |
| Altitude | 19000 |
| Route | DONIV N188 MAVIT |
| Aircraft | DH8D/M-SDE2E3FGRY/H |
Departure
| Time | 2026-04-29 19:53 |
|---|---|
| Airport | Belgrade Nikola Tesla Airport (LYBE) |
Arrival
| Time | N/A |
|---|---|
| Airport | Timișoara Traian Vuia International Airport (LRTR) |
| Time | Latitude | Longitude | Altitude | Speed | Heading |
|---|---|---|---|---|---|
| 2026-04-29 19:52 | 44.83988 | 20.26862 | 1432 ft | 193 kts | 306° |
| 2026-04-29 19:53 | 44.84000 | 20.23967 | 2644 ft | 211 kts | 237° |
| 2026-04-29 19:53 | 44.82923 | 20.22479 | 3492 ft | 210 kts | 221° |
| 2026-04-29 19:53 | 44.81844 | 20.21206 | 4255 ft | 207 kts | 221° |
| 2026-04-29 19:53 | 44.80763 | 20.19962 | 4955 ft | 209 kts | 220° |
| 2026-04-29 19:54 | 44.78412 | 20.17323 | 5970 ft | 235 kts | 219° |
| 2026-04-29 19:54 | 44.77110 | 20.15899 | 6492 ft | 246 kts | 219° |
| 2026-04-29 19:54 | 44.75731 | 20.14400 | 7019 ft | 257 kts | 219° |
| 2026-04-29 19:55 | 44.74320 | 20.12875 | 7535 ft | 265 kts | 219° |
| 2026-04-29 19:55 | 44.72975 | 20.11428 | 8008 ft | 270 kts | 219° |
| 2026-04-29 19:55 | 44.71558 | 20.09908 | 8493 ft | 276 kts | 219° |
| 2026-04-29 19:55 | 44.70110 | 20.08366 | 8975 ft | 283 kts | 218° |
| 2026-04-29 19:56 | 44.67089 | 20.07226 | 9755 ft | 296 kts | 172° |
| 2026-04-29 19:56 | 44.65266 | 20.08425 | 10261 ft | 301 kts | 143° |
| 2026-04-29 19:57 | 44.59195 | 20.16391 | 12223 ft | 310 kts | 139° |
| 2026-04-29 19:57 | 44.57719 | 20.18339 | 12685 ft | 307 kts | 139° |
| 2026-04-29 19:58 | 44.55023 | 20.21879 | 13536 ft | 307 kts | 140° |
| 2026-04-29 19:58 | 44.53708 | 20.23600 | 13947 ft | 307 kts | 140° |
| 2026-04-29 19:58 | 44.52480 | 20.25310 | 14340 ft | 308 kts | 133° |
| 2026-04-29 19:59 | 44.51649 | 20.27491 | 14724 ft | 315 kts | 107° |
| 2026-04-29 19:59 | 44.51522 | 20.29772 | 15091 ft | 314 kts | 82° |
| 2026-04-29 19:59 | 44.52155 | 20.32258 | 15516 ft | 305 kts | 53° |
| 2026-04-29 19:59 | 44.53517 | 20.34742 | 16073 ft | 302 kts | 45° |
| 2026-04-29 20:00 | 44.54974 | 20.37093 | 16583 ft | 298 kts | 43° |
| 2026-04-29 20:00 | 44.57742 | 20.41254 | 17562 ft | 291 kts | 40° |
| 2026-04-29 20:00 | 44.59099 | 20.43203 | 18018 ft | 287 kts | 39° |